createdAt,value
2024-05-09T00:02:37.073Z,20.80
2024-05-09T00:05:24.117Z,20.90
2024-05-09T00:08:13.704Z,19.95
2024-05-09T00:11:00.880Z,21.98
2024-05-09T00:13:47.883Z,21.40
2024-05-09T00:16:34.844Z,20.52
2024-05-09T00:19:21.903Z,24.67
2024-05-09T00:22:08.925Z,23.27
2024-05-09T00:24:55.860Z,25.02
2024-05-09T00:27:42.862Z,26.27
2024-05-09T00:30:34.610Z,28.00
2024-05-09T00:33:23.703Z,26.27
2024-05-09T00:36:10.790Z,29.92
2024-05-09T00:39:00.008Z,28.80
2024-05-09T00:41:47.029Z,27.45
2024-05-09T00:44:34.105Z,29.30
2024-05-09T00:47:21.879Z,25.50
2024-05-09T00:50:15.952Z,30.75
2024-05-09T00:53:16.534Z,31.00
2024-05-09T00:56:05.232Z,30.27
2024-05-09T00:58:52.337Z,30.30
2024-05-09T01:01:41.182Z,29.00
2024-05-09T01:04:28.211Z,26.88
2024-05-09T01:07:15.428Z,30.02
2024-05-09T01:10:02.439Z,27.98
2024-05-09T01:12:49.724Z,26.55
2024-05-09T01:15:36.662Z,28.15
2024-05-09T01:18:24.130Z,28.20
2024-05-09T01:21:11.342Z,30.48
2024-05-09T01:24:00.588Z,28.83
2024-05-09T01:26:47.678Z,31.00
2024-05-09T01:29:34.640Z,29.42
2024-05-09T01:32:21.881Z,30.20
2024-05-09T01:35:09.082Z,31.45
2024-05-09T01:37:58.498Z,28.60
2024-05-09T01:40:48.659Z,29.38
2024-05-09T01:43:35.587Z,34.05
2024-05-09T01:46:22.564Z,28.48
2024-05-09T01:49:09.692Z,27.40
2024-05-09T01:51:56.708Z,30.50
2024-05-09T01:54:43.611Z,31.42
2024-05-09T01:57:30.553Z,31.08
2024-05-09T02:00:26.236Z,30.92
2024-05-09T02:03:21.700Z,26.98
2024-05-09T02:06:08.816Z,29.55
2024-05-09T02:08:56.033Z,27.52
2024-05-09T02:11:44.331Z,31.33
2024-05-09T02:14:31.504Z,26.67
2024-05-09T02:17:18.602Z,27.60
2024-05-09T02:20:13.240Z,28.35
2024-05-09T02:23:06.336Z,29.17
2024-05-09T02:25:56.020Z,27.52
2024-05-09T02:28:43.159Z,27.95
2024-05-09T02:31:32.455Z,31.80
2024-05-09T02:34:19.513Z,28.83
2024-05-09T02:37:06.597Z,31.60
2024-05-09T02:39:55.863Z,32.08
2024-05-09T02:42:42.817Z,30.63
2024-05-09T02:45:32.010Z,30.25
2024-05-09T02:48:19.214Z,31.25
2024-05-09T02:51:06.377Z,31.73
2024-05-09T02:53:53.379Z,29.85
2024-05-09T02:56:40.394Z,28.50
2024-05-09T02:59:27.526Z,29.90
2024-05-09T03:02:14.704Z,31.15
2024-05-09T03:05:04.451Z,32.88
2024-05-09T03:07:51.437Z,30.25
2024-05-09T03:10:39.320Z,33.90
2024-05-09T03:13:26.726Z,29.63
2024-05-09T03:16:13.731Z,32.97
2024-05-09T03:19:00.750Z,32.53
2024-05-09T03:21:47.741Z,32.97
2024-05-09T03:24:34.660Z,33.58
2024-05-09T03:27:21.631Z,31.15
2024-05-09T03:30:09.875Z,33.13
2024-05-09T03:32:57.584Z,34.70
2024-05-09T03:35:44.647Z,34.83
2024-05-09T03:38:37.063Z,33.50
2024-05-09T03:41:24.148Z,34.67
2024-05-09T03:44:11.161Z,33.63
2024-05-09T03:46:58.275Z,33.70
2024-05-09T03:49:45.211Z,34.47
2024-05-09T03:52:34.405Z,33.17
2024-05-09T03:55:21.346Z,31.30
2024-05-09T03:58:08.728Z,30.33
2024-05-09T04:00:58.106Z,28.48
2024-05-09T04:03:45.213Z,26.77
2024-05-09T04:06:32.267Z,26.80
2024-05-09T04:09:19.158Z,27.63
2024-05-09T04:12:07.839Z,25.88
2024-05-09T04:14:54.948Z,25.83
2024-05-09T04:17:42.373Z,26.27
2024-05-09T04:20:37.320Z,27.98
2024-05-09T04:23:26.965Z,28.33
2024-05-09T04:26:14.056Z,27.45
2024-05-09T04:29:04.017Z,28.67
2024-05-09T04:31:51.257Z,27.98
2024-05-09T04:34:38.325Z,26.40
2024-05-09T04:37:26.329Z,25.35
2024-05-09T04:40:24.250Z,23.80
2024-05-09T04:43:21.294Z,25.45
2024-05-09T04:46:08.217Z,23.70
2024-05-09T04:48:57.333Z,24.70
2024-05-09T04:51:44.380Z,23.25
2024-05-09T04:54:36.228Z,24.65
2024-05-09T04:57:23.743Z,24.42
2024-05-09T05:00:14.871Z,27.48
2024-05-09T05:03:12.788Z,25.98
2024-05-09T05:06:02.460Z,27.00
2024-05-09T05:08:49.490Z,22.48
2024-05-09T05:11:36.574Z,27.02
2024-05-09T05:14:23.655Z,24.58
2024-05-09T05:17:10.741Z,21.88
2024-05-09T05:19:58.707Z,21.75
2024-05-09T05:22:45.831Z,25.95
2024-05-09T05:25:32.806Z,19.23
2024-05-09T05:28:19.996Z,19.67
2024-05-09T05:31:09.274Z,19.67
2024-05-09T05:33:56.435Z,19.23
2024-05-09T05:36:45.727Z,20.52
2024-05-09T05:39:32.632Z,18.85
2024-05-09T05:42:19.589Z,19.05
2024-05-09T05:45:10.301Z,18.60
2024-05-09T05:47:59.975Z,19.27
2024-05-09T05:50:47.215Z,18.58
2024-05-09T05:53:34.553Z,20.83
2024-05-09T05:56:21.673Z,19.13
2024-05-09T05:59:08.819Z,20.50
2024-05-09T06:01:55.847Z,23.08
2024-05-09T06:04:43.001Z,18.00
2024-05-09T06:07:29.980Z,19.52
2024-05-09T06:10:21.523Z,19.20
2024-05-09T06:13:13.716Z,21.55
2024-05-09T06:16:02.419Z,18.63
2024-05-09T06:18:51.983Z,19.40
2024-05-09T06:21:39.154Z,17.17
2024-05-09T06:24:26.068Z,20.85
2024-05-09T06:27:13.072Z,17.65
2024-05-09T06:30:00.119Z,17.25
2024-05-09T06:32:47.323Z,17.67
2024-05-09T06:35:34.480Z,20.17
2024-05-09T06:38:21.604Z,18.17
2024-05-09T06:41:11.014Z,16.88
2024-05-09T06:43:58.029Z,16.58
2024-05-09T06:46:46.102Z,18.95
2024-05-09T06:49:33.298Z,15.65
2024-05-09T06:52:20.307Z,18.40
2024-05-09T06:55:09.652Z,15.23
2024-05-09T06:57:59.044Z,17.77
2024-05-09T07:00:46.112Z,18.45
2024-05-09T07:03:33.297Z,18.92
2024-05-09T07:06:20.293Z,19.25
2024-05-09T07:09:09.496Z,16.75
2024-05-09T07:11:56.614Z,20.35
2024-05-09T07:14:43.749Z,18.48
2024-05-09T07:17:31.029Z,18.40
2024-05-09T07:20:23.706Z,17.85
2024-05-09T07:23:21.678Z,33.83
2024-05-09T07:26:08.949Z,15.90
2024-05-09T07:28:58.335Z,14.90
2024-05-09T07:31:47.872Z,16.73
2024-05-09T07:34:37.694Z,13.40
2024-05-09T07:37:24.680Z,13.60
2024-05-09T07:40:21.060Z,10.43
2024-05-09T07:43:14.972Z,9.52
2024-05-09T07:46:51.812Z,9.02
2024-05-09T07:53:24.931Z,9.13
2024-05-09T07:55:10.483Z,8.77
2024-05-09T07:58:02.458Z,7.25
2024-05-09T08:00:49.557Z,8.10
2024-05-09T08:03:37.998Z,7.45
2024-05-09T08:06:25.870Z,8.85
2024-05-09T08:09:16.923Z,8.05
2024-05-09T08:12:09.404Z,6.95
2024-05-09T08:15:01.369Z,7.47
2024-05-09T08:17:50.736Z,10.05
2024-05-09T08:20:38.464Z,7.78
2024-05-09T08:23:28.865Z,11.60
2024-05-09T08:26:18.511Z,7.72
2024-05-09T08:29:05.489Z,8.02
2024-05-09T08:31:55.980Z,9.27
2024-05-09T08:34:43.137Z,13.15
2024-05-09T08:37:34.991Z,8.90
2024-05-09T08:40:34.196Z,9.02
2024-05-09T08:43:26.744Z,7.90
2024-05-09T08:46:18.857Z,8.25
2024-05-09T08:49:09.132Z,11.60
2024-05-09T08:51:56.662Z,11.88
2024-05-09T08:54:46.084Z,9.30
2024-05-09T08:57:35.752Z,8.40
2024-05-09T09:00:33.882Z,8.68
2024-05-09T09:03:30.219Z,7.47
2024-05-09T09:06:21.727Z,8.43
2024-05-09T09:09:12.418Z,8.77
2024-05-09T09:11:59.511Z,7.88
2024-05-09T09:14:48.720Z,6.32
2024-05-09T09:17:39.136Z,7.38
2024-05-09T09:20:36.402Z,10.57
2024-05-09T09:23:29.843Z,6.97
2024-05-09T09:26:22.239Z,6.50
2024-05-09T09:29:11.274Z,8.65
2024-05-09T09:32:04.548Z,9.88
2024-05-09T09:34:52.153Z,8.43
2024-05-09T09:37:39.258Z,9.80
2024-05-09T09:40:32.253Z,7.85
2024-05-09T09:43:22.594Z,13.32
2024-05-09T09:46:13.662Z,10.23
2024-05-09T09:49:00.854Z,8.52
2024-05-09T09:51:49.418Z,9.63
2024-05-09T09:54:36.466Z,7.18
2024-05-09T09:57:27.288Z,6.95
2024-05-09T10:00:24.578Z,26.30
2024-05-09T10:03:17.475Z,7.10
2024-05-09T10:06:05.373Z,9.80
2024-05-09T10:08:55.430Z,8.02
2024-05-09T10:11:51.788Z,7.22
2024-05-09T10:14:45.760Z,5.90
2024-05-09T10:17:32.833Z,6.55
2024-05-09T10:20:24.766Z,5.22
2024-05-09T10:23:32.456Z,8.05
2024-05-09T10:26:32.388Z,7.40
2024-05-09T10:29:20.094Z,9.98
2024-05-09T10:32:08.638Z,10.13
2024-05-09T10:35:19.271Z,8.18
2024-05-09T10:38:08.891Z,8.20
2024-05-09T10:41:00.106Z,5.00
2024-05-09T10:43:47.730Z,5.35
2024-05-09T10:46:34.740Z,8.35
2024-05-09T10:49:24.480Z,4.88
2024-05-09T10:52:11.582Z,7.93
2024-05-09T10:54:59.933Z,4.88
2024-05-09T10:57:50.464Z,4.38
2024-05-09T11:00:37.724Z,3.97
2024-05-09T11:03:25.939Z,8.18
2024-05-09T11:06:14.840Z,5.40
2024-05-09T11:09:01.933Z,5.35
2024-05-09T11:11:51.737Z,2.95
2024-05-09T11:14:51.907Z,3.75
2024-05-09T11:17:38.911Z,4.75
2024-05-09T11:20:39.497Z,2.78
2024-05-09T11:23:30.066Z,5.57
2024-05-09T11:26:22.673Z,3.65
2024-05-09T11:29:12.536Z,6.60
2024-05-09T11:32:00.264Z,7.30
2024-05-09T11:34:49.820Z,4.40
2024-05-09T11:37:39.683Z,3.25
2024-05-09T11:40:32.358Z,6.20
2024-05-09T11:43:21.475Z,6.57
2024-05-09T11:46:11.710Z,4.53
2024-05-09T11:48:58.887Z,3.78
2024-05-09T11:51:45.960Z,3.05
2024-05-09T11:54:32.954Z,3.95
2024-05-09T11:57:24.408Z,4.28
2024-05-09T12:00:17.854Z,6.45
2024-05-09T12:03:06.089Z,5.18
2024-05-09T12:05:53.611Z,3.83
2024-05-09T12:08:41.198Z,4.78
2024-05-09T12:11:28.214Z,3.58
2024-05-09T12:14:15.205Z,4.10
2024-05-09T12:17:03.797Z,5.15
2024-05-09T12:19:52.748Z,5.25
2024-05-09T12:22:39.734Z,3.20
2024-05-09T12:25:29.219Z,4.15
2024-05-09T12:28:19.254Z,3.90
2024-05-09T12:31:06.384Z,5.97
2024-05-09T12:33:54.719Z,3.10
2024-05-09T12:36:42.858Z,8.52
2024-05-09T12:39:29.830Z,4.53
2024-05-09T12:42:26.489Z,4.18
2024-05-09T12:45:15.280Z,4.32
2024-05-09T12:48:02.576Z,3.03
2024-05-09T12:50:52.046Z,3.25
2024-05-09T12:53:39.110Z,4.20
2024-05-09T12:56:33.552Z,4.82
2024-05-09T12:59:20.522Z,2.92
2024-05-09T13:02:07.757Z,2.92
2024-05-09T13:04:57.298Z,3.60
2024-05-09T13:07:44.936Z,4.50
2024-05-09T13:10:33.280Z,3.47
2024-05-09T13:13:20.730Z,6.10
2024-05-09T13:16:08.326Z,5.10
2024-05-09T13:18:55.462Z,3.88
2024-05-09T13:21:42.558Z,4.13
2024-05-09T13:24:31.815Z,4.32
2024-05-09T13:27:19.130Z,5.38
2024-05-09T13:30:12.056Z,4.63
2024-05-09T13:33:06.065Z,2.88
2024-05-09T13:35:54.089Z,3.67
2024-05-09T13:38:41.040Z,4.15
2024-05-09T13:41:27.998Z,5.85
2024-05-09T13:44:15.073Z,3.67
2024-05-09T13:47:04.655Z,5.20
2024-05-09T13:49:51.895Z,4.05
2024-05-09T13:52:38.856Z,2.58
2024-05-09T13:55:28.405Z,7.22
2024-05-09T13:58:15.599Z,4.88
2024-05-09T14:01:02.808Z,9.25
2024-05-09T14:03:54.745Z,3.58
2024-05-09T14:06:41.999Z,2.95
2024-05-09T14:09:28.981Z,2.95
2024-05-09T14:12:16.151Z,3.83
2024-05-09T14:15:03.075Z,3.22
2024-05-09T14:17:50.063Z,5.50
2024-05-09T14:20:38.077Z,4.63
2024-05-09T14:23:25.023Z,3.22
2024-05-09T14:26:12.126Z,8.05
2024-05-09T14:28:59.116Z,4.47
2024-05-09T14:31:46.345Z,2.72
2024-05-09T14:34:33.623Z,7.78
2024-05-09T14:37:20.915Z,4.97
2024-05-09T14:40:14.689Z,5.03
2024-05-09T14:43:11.519Z,3.47
2024-05-09T14:45:59.351Z,2.45
2024-05-09T14:48:48.976Z,3.22
2024-05-09T14:51:36.140Z,3.78
2024-05-09T14:54:23.148Z,4.50
2024-05-09T14:57:10.238Z,2.95
2024-05-09T14:59:57.211Z,3.85
2024-05-09T15:02:44.216Z,4.15
2024-05-09T15:05:31.272Z,2.95
2024-05-09T15:08:19.546Z,3.15
2024-05-09T15:11:09.045Z,6.20
2024-05-09T15:14:00.661Z,5.88
2024-05-09T15:16:50.723Z,4.05
2024-05-09T15:19:37.856Z,4.32
2024-05-09T15:22:24.964Z,4.28
2024-05-09T15:25:11.952Z,6.20
2024-05-09T15:27:59.096Z,3.15
2024-05-09T15:30:48.806Z,3.70
2024-05-09T15:33:35.909Z,4.78
2024-05-09T15:36:22.947Z,2.25
2024-05-09T15:39:09.884Z,3.47
2024-05-09T15:41:59.227Z,5.03
2024-05-09T15:44:52.661Z,3.25
2024-05-09T15:47:39.804Z,4.30
2024-05-09T15:50:36.410Z,3.78
2024-05-09T15:53:26.941Z,5.07
2024-05-09T15:56:13.968Z,6.43
2024-05-09T15:59:01.116Z,3.30
2024-05-09T16:01:48.138Z,4.45
2024-05-09T16:04:35.320Z,4.22
2024-05-09T16:07:22.348Z,2.75
2024-05-09T16:10:16.082Z,5.32
2024-05-09T16:13:08.810Z,2.03
2024-05-09T16:15:56.077Z,3.40
2024-05-09T16:18:43.288Z,6.28
2024-05-09T16:21:30.350Z,4.53
2024-05-09T16:24:17.303Z,2.75
2024-05-09T16:27:06.621Z,23.25
2024-05-09T16:29:53.682Z,3.03
2024-05-09T16:32:43.967Z,6.25
2024-05-09T16:35:31.010Z,3.38
2024-05-09T16:38:18.994Z,3.80
2024-05-09T16:41:05.914Z,3.55
2024-05-09T16:43:55.134Z,5.65
2024-05-09T16:46:42.092Z,4.05
2024-05-09T16:49:29.841Z,3.75
2024-05-09T16:52:16.995Z,6.68
2024-05-09T16:55:04.504Z,4.82
2024-05-09T16:57:51.988Z,3.40
2024-05-09T17:00:43.568Z,3.42
2024-05-09T17:03:31.424Z,3.92
2024-05-09T17:06:18.740Z,2.42
2024-05-09T17:09:11.853Z,3.53
2024-05-09T17:12:02.505Z,7.45
2024-05-09T17:14:49.450Z,5.35
2024-05-09T17:17:36.468Z,3.40
2024-05-09T17:20:31.296Z,4.60
2024-05-09T17:23:21.406Z,3.05
2024-05-09T17:26:08.347Z,4.80
2024-05-09T17:28:55.338Z,2.47
2024-05-09T17:31:42.745Z,2.42
2024-05-09T17:34:29.883Z,4.25
2024-05-09T17:37:19.856Z,7.22
2024-05-09T17:40:16.527Z,4.25
2024-05-09T17:43:05.168Z,4.50
2024-05-09T17:45:53.001Z,3.72
2024-05-09T17:48:40.296Z,5.93
2024-05-09T17:51:27.547Z,2.90
2024-05-09T17:54:14.576Z,19.00
2024-05-09T17:57:01.805Z,4.07
2024-05-09T17:59:54.130Z,2.00
2024-05-09T18:02:43.639Z,5.05
2024-05-09T18:05:30.949Z,3.72
2024-05-09T18:08:18.178Z,3.45
2024-05-09T18:11:05.470Z,6.20
2024-05-09T18:13:54.232Z,2.95
2024-05-09T18:16:41.223Z,5.78
2024-05-09T18:19:28.521Z,4.35
2024-05-09T18:22:15.706Z,3.53
2024-05-09T18:25:05.107Z,9.48
2024-05-09T18:27:52.270Z,13.27
2024-05-09T18:30:40.497Z,4.88
2024-05-09T18:33:27.707Z,4.45
2024-05-09T18:36:17.262Z,5.05
2024-05-09T18:39:04.933Z,5.30
2024-05-09T18:41:51.967Z,8.35
2024-05-09T18:44:39.155Z,4.82
2024-05-09T18:47:26.324Z,8.00
2024-05-09T18:50:24.600Z,9.40
2024-05-09T18:53:19.038Z,5.82
2024-05-09T18:56:07.570Z,6.95
2024-05-09T18:58:54.493Z,6.50
2024-05-09T19:01:43.971Z,8.10
2024-05-09T19:04:31.396Z,5.00
2024-05-09T19:07:19.576Z,6.20
2024-05-09T19:10:11.876Z,5.93
2024-05-09T19:13:11.840Z,6.18
2024-05-09T19:16:00.676Z,3.65
2024-05-09T19:18:47.905Z,6.30
2024-05-09T19:21:35.231Z,3.30
2024-05-09T19:24:22.324Z,4.97
2024-05-09T19:27:09.540Z,4.03
2024-05-09T19:29:57.762Z,6.50
2024-05-09T19:32:45.072Z,3.25
2024-05-09T19:35:32.464Z,3.90
2024-05-09T19:38:19.570Z,5.95
2024-05-09T19:41:07.061Z,7.95
2024-05-09T19:43:53.996Z,6.18
2024-05-09T19:46:41.013Z,7.30
2024-05-09T19:49:28.125Z,5.70
2024-05-09T19:52:18.000Z,11.73
2024-05-09T19:55:05.582Z,10.00
2024-05-09T19:57:52.677Z,7.28
2024-05-09T20:00:43.767Z,5.68
2024-05-09T20:03:36.675Z,4.70
2024-05-09T20:06:26.240Z,5.07
2024-05-09T20:09:13.804Z,6.82
2024-05-09T20:12:00.842Z,4.65
2024-05-09T20:14:47.819Z,4.07
2024-05-09T20:17:34.807Z,6.68
2024-05-09T20:20:32.196Z,4.50
2024-05-09T20:23:24.171Z,7.68
2024-05-09T20:26:11.163Z,4.38
2024-05-09T20:28:58.103Z,6.00
2024-05-09T20:31:45.068Z,5.72
2024-05-09T20:34:32.042Z,8.48
2024-05-09T20:37:19.363Z,3.92
2024-05-09T20:40:12.007Z,6.45
2024-05-09T20:43:02.605Z,4.63
2024-05-09T20:45:49.696Z,6.70
2024-05-09T20:48:39.310Z,4.82
2024-05-09T20:51:28.228Z,4.50
2024-05-09T20:54:15.933Z,4.32
2024-05-09T20:57:03.061Z,4.28
2024-05-09T20:59:50.041Z,4.55
2024-05-09T21:02:38.177Z,6.00
2024-05-09T21:05:25.559Z,5.63
2024-05-09T21:08:15.238Z,8.10
2024-05-09T21:11:04.963Z,4.68
2024-05-09T21:13:54.173Z,12.13
2024-05-09T21:16:41.274Z,6.43
2024-05-09T21:19:28.278Z,4.68
2024-05-09T21:22:15.376Z,4.25
2024-05-09T21:25:02.493Z,9.40
2024-05-09T21:27:49.524Z,4.68
2024-05-09T21:30:41.796Z,6.53
2024-05-09T21:33:30.202Z,4.78
2024-05-09T21:36:19.827Z,4.82
2024-05-09T21:39:09.361Z,6.28
2024-05-09T21:42:01.668Z,6.57
2024-05-09T21:44:48.657Z,10.25
2024-05-09T21:47:35.784Z,5.50
2024-05-09T21:50:28.523Z,7.15
2024-05-09T21:53:25.783Z,6.32
2024-05-09T21:56:12.946Z,7.82
2024-05-09T21:59:02.392Z,7.25
2024-05-09T22:01:49.427Z,5.78
2024-05-09T22:04:38.712Z,6.00
2024-05-09T22:07:27.827Z,5.90
2024-05-09T22:10:22.773Z,8.63
2024-05-09T22:13:15.723Z,4.47
2024-05-09T22:16:03.979Z,8.15
2024-05-09T22:18:51.110Z,5.85
2024-05-09T22:21:43.080Z,8.52
2024-05-09T22:24:35.074Z,5.07
2024-05-09T22:27:22.143Z,6.40
2024-05-09T22:30:14.659Z,5.35
2024-05-09T22:33:05.875Z,6.25
2024-05-09T22:35:56.056Z,8.05
2024-05-09T22:38:42.965Z,8.40
2024-05-09T22:41:34.487Z,6.57
2024-05-09T22:44:21.385Z,7.85
2024-05-09T22:47:08.484Z,12.30
2024-05-09T22:49:55.478Z,14.45
2024-05-09T22:52:44.670Z,8.70
2024-05-09T22:55:31.561Z,10.23
2024-05-09T22:58:19.149Z,6.10
2024-05-09T23:01:06.407Z,5.60
2024-05-09T23:03:53.789Z,5.60
2024-05-09T23:06:41.323Z,5.80
2024-05-09T23:09:28.278Z,7.35
2024-05-09T23:12:17.603Z,5.57
2024-05-09T23:15:07.998Z,7.68
2024-05-09T23:17:55.318Z,11.80
2024-05-09T23:20:42.631Z,4.57
2024-05-09T23:23:29.632Z,9.68
2024-05-09T23:26:18.885Z,6.10
2024-05-09T23:29:08.283Z,12.02
2024-05-09T23:31:57.767Z,8.13
2024-05-09T23:34:44.714Z,5.60
2024-05-09T23:37:31.685Z,10.25
2024-05-09T23:40:22.857Z,6.82
2024-05-09T23:43:13.476Z,8.80
2024-05-09T23:46:00.692Z,8.30
2024-05-09T23:48:47.750Z,7.97
2024-05-09T23:51:34.740Z,7.18
2024-05-09T23:54:22.010Z,6.40
2024-05-09T23:57:09.013Z,6.72
2024-05-09T23:59:57.179Z,8.35
